Strona główna
METAR-TAF:

METAR-TAF

Lotnisko :

Port lotniczy Córdoba

Córdoba, Argentyna

Szerokość geograficzna: 31-19S, Długość geograficzna: 064-13W, wysokość: 484 m

Aktualna obserwacja pogody

Raport powstał 52 minut temu, godzina 15:00 UTC
Wiatr 18 kt od północny wschód
Temperatura 20°C
Wilgotność 28%
Ciśnienie 1022 hPa
Widzialność 10 km lub więcej
Brak chmur poniżej 1500 m i brak chmur cumulonimbus

METAR: SACO 161500Z 04018KT CAVOK 20/01 Q1022 NOSIG

czas: 12:52 (15:52 UTC)

Prognoza

Raport powstał 4 godziny i 52 minut temu, godzina 11:00 UTC
Prognoza ważna od 16 godzina 12 UTC do 17 godzina 12 UTC
Wiatr 15 kt od północno-północny wschód w porywach dochodzący do 20 kt
Widzialność 10 km lub więcej
Brak chmur poniżej 1500 m i brak chmur cumulonimbus
Stopniowe zmiany
od 17 godzina 06 UTC do 17 godzina 06 UTC
Wiatr 5 kt od północ
Widzialność 10 km lub więcej
Brak chmur poniżej 1500 m i brak chmur cumulonimbus

TAF: SACO 161100Z 1612/1712 02015G20KT CAVOK TX24/1618Z TN06/1710Z BECMG 1706/1706 36005KT CAVOK

Obserwacja i prognoza pogody dla ponad 4000 lotnisk (raport METAR i TAF).

Dostępne stacje oznaczono żółtymi i czerwonymi punktami na mapie.

Najedź kursorem aby zobaczyć nazwę stacji.

Kliknij aby zobaczyć obserwacje i prognozy pogody.

Aby zmienić mapę: kliknij na zielony przycisk z czarnym krzyżykiem, aby powiększyć; na zielony przycisk z myślnikiem, aby pomniejszyć; na zielone strzałki, aby przejść do map sąsiednich.


METAR-TAF: